Rockford, MI (49341)

11:53 PM EDT on August 03, 2015 (GMT -0400)
Cannon Twp-Tillicum Farms | | Change Station
CLOSE
Current Station
Personal Weather Station
Location: Rockford, MI
Elevation: 873 ft
Nearby Weather Stations

Elev 873 ft 43.09 °N, 85.47 °W | Updated 13 minutes ago

Partly Cloudy
Partly Cloudy
60.9 °F
Feels Like 60.9 °F
N
0.0
Wind Variable Wind from NW

Today
High -- | Low -- °F
--% Chance of Precip.
Yesterday
High -- | Low -- °F
Precip. -- in
6:34 AM 9:01 PM
Waning Gibbous, 81% visible
Pressure 29.86 in
Visibility 10.0 miles
Clouds Few 7500 ft
Dew Point 54 °F
Humidity 77%
Rainfall 0.00 in
Snow Depth Not available.
UV 0.0 out of 12
Pollen 5.20 out of 12
Air Quality Not available.
Flu Activity Not available.
METAR KGRR 040253Z 22006KT 10SM FEW075 18/12 A2987 RMK AO2 SLP111 T01830117 53010

More Conditions Fewer Conditions

Pressure 29.86 in
Visibility 10.0 miles
Clouds Few 7500 ft
Dew Point 54 °F
Humidity 77%
Rainfall 0.00 in
Snow Depth Not available.
UV 0.0 out of 12
Pollen 5.20 out of 12
Air Quality Not available.
Flu Activity Not available.
METAR KGRR 040253Z 22006KT 10SM FEW075 18/12 A2987 RMK AO2 SLP111 T01830117 53010

More Conditions Fewer Conditions

10-Day Weather Forecast

×

Almanac

Astronomy

Aug. 03, 2015 Rise Set
Actual Time
Civil Twilight
Nautical Twilight
Astronomical Twilight
Moon
Length of Visible Light
Length of Day
Tomorrow will be .
, % of the Moon is Illuminated

Today's Extremes

State Highs State Lows

Community

WunderPhotos

Upload Photos

1,843,847 photos uploaded!

WunderBlogs® & News

Nearby

Air Quality

  Air Quality AQ Index Pollutant
Not available.

Snow Depth

Station Depth Elevation

Earthquake Activity

City Distance Mag. Time & Date
Minimum magnitude displayed is 2.5.

Coastal Water Temperatures

Place Temperature

Stations

Nearby Weather Stations

Station Location Temp. Windchill Dew Point Humidity Wind Precip. Elev Updated Type